createdAt,value
2022-12-01T00:01:20.892Z,95933.59
2022-12-01T00:03:48.828Z,95915.16
2022-12-01T00:06:18.817Z,95931.38
2022-12-01T00:09:02.269Z,95914.91
2022-12-01T00:11:30.301Z,95909.59
2022-12-01T00:13:59.396Z,95911.91
2022-12-01T00:16:27.838Z,95908.47
2022-12-01T00:18:55.832Z,95909.97
2022-12-01T00:21:25.938Z,95913.81
2022-12-01T00:23:55.361Z,95906.69
2022-12-01T00:26:25.035Z,95913.81
2022-12-01T00:28:54.237Z,95922.63
2022-12-01T00:31:24.093Z,95908.31
2022-12-01T00:33:51.939Z,95906.38
2022-12-01T00:36:20.117Z,95914.50
2022-12-01T00:38:48.054Z,95906.66
2022-12-01T00:41:16.007Z,95910.47
2022-12-01T00:43:43.707Z,95908.59
2022-12-01T00:46:11.682Z,95901.69
2022-12-01T00:48:40.897Z,95922.31
2022-12-01T00:51:08.998Z,95912.56
2022-12-01T00:53:36.643Z,95918.75
2022-12-01T00:56:05.173Z,95919.56
2022-12-01T00:58:32.804Z,95918.75
2022-12-01T01:01:03.464Z,95926.56
2022-12-01T01:03:31.967Z,95922.03
2022-12-01T01:06:07.483Z,95929.47
2022-12-01T01:08:35.489Z,95923.28
2022-12-01T01:11:03.936Z,95920.91
2022-12-01T01:13:32.059Z,95926.13
2022-12-01T01:16:00.734Z,95923.97
2022-12-01T01:18:29.513Z,95927.94
2022-12-01T01:20:58.542Z,95926.16
2022-12-01T01:23:28.311Z,95925.09
2022-12-01T01:26:02.139Z,95918.22
2022-12-01T01:28:30.998Z,95915.88
2022-12-01T01:30:58.718Z,95907.81
2022-12-01T01:33:27.283Z,95909.16
2022-12-01T01:35:54.917Z,95907.53
2022-12-01T01:38:23.731Z,95903.97
2022-12-01T01:40:52.702Z,95901.06
2022-12-01T01:43:49.430Z,95905.59
2022-12-01T01:46:18.739Z,95906.72
2022-12-01T01:48:51.077Z,95907.81
2022-12-01T01:51:23.560Z,95907.53
2022-12-01T01:53:55.377Z,95908.34
2022-12-01T01:56:25.026Z,95903.66
2022-12-01T01:58:53.893Z,95903.66
2022-12-01T02:01:22.646Z,95910.28
2022-12-01T02:03:54.066Z,95906.16
2022-12-01T02:06:23.790Z,95905.06
2022-12-01T02:08:52.005Z,95901.47
2022-12-01T02:11:49.319Z,95900.63
2022-12-01T02:14:40.179Z,95904.75
2022-12-01T02:17:18.755Z,95898.56
2022-12-01T02:20:11.322Z,95896.53
2022-12-01T02:22:54.903Z,95893.34
2022-12-01T02:25:37.137Z,95893.34
2022-12-01T02:28:41.430Z,95888.00
2022-12-01T02:31:17.236Z,95896.66
2022-12-01T02:33:54.469Z,95888.56
2022-12-01T02:36:33.540Z,95884.56
2022-12-01T02:39:09.305Z,95890.19
2022-12-01T02:41:40.837Z,95892.69
2022-12-01T02:44:14.581Z,95902.28
2022-12-01T02:46:50.657Z,95900.06
2022-12-01T02:49:24.068Z,95903.25
2022-12-01T02:51:53.912Z,95899.53
2022-12-01T02:54:23.507Z,95899.69
2022-12-01T02:56:53.401Z,95899.53
2022-12-01T02:59:22.100Z,95902.00
2022-12-01T03:02:05.478Z,95899.00
2022-12-01T03:04:47.073Z,95903.63
2022-12-01T03:07:33.281Z,95902.81
2022-12-01T03:10:11.696Z,95901.44
2022-12-01T03:12:53.248Z,95901.28
2022-12-01T03:15:29.207Z,95904.56
2022-12-01T03:18:06.921Z,95895.88
2022-12-01T03:20:38.975Z,95898.38
2022-12-01T03:23:10.779Z,95885.91
2022-12-01T03:25:41.233Z,95889.88
2022-12-01T03:28:21.276Z,95883.56
2022-12-01T03:30:53.625Z,95896.22
2022-12-01T03:33:27.948Z,95894.84
2022-12-01T03:36:01.833Z,95888.81
2022-12-01T03:38:31.910Z,95894.03
2022-12-01T03:41:03.276Z,95891.69
2022-12-01T03:43:35.719Z,95895.66
2022-12-01T03:46:09.907Z,95895.94
2022-12-01T03:48:40.694Z,95893.88
2022-12-01T03:51:17.043Z,95896.22
2022-12-01T03:53:54.452Z,95896.53
2022-12-01T03:56:26.290Z,95903.09
2022-12-01T03:58:58.199Z,95895.13
2022-12-01T04:01:26.504Z,95900.22
2022-12-01T04:03:55.917Z,95901.47
2022-12-01T04:06:23.672Z,95903.38
2022-12-01T04:08:51.347Z,95898.72
2022-12-01T04:11:36.993Z,95900.88
2022-12-01T04:14:05.009Z,95905.84
2022-12-01T04:16:32.694Z,95902.28
2022-12-01T04:19:02.161Z,95893.78
2022-12-01T04:21:29.805Z,95909.44
2022-12-01T04:24:04.285Z,95904.22
2022-12-01T04:26:33.895Z,95899.53
2022-12-01T04:29:02.515Z,95903.94
2022-12-01T04:31:30.407Z,95903.53
2022-12-01T04:33:59.509Z,95905.31
2022-12-01T04:36:31.675Z,95905.31
2022-12-01T04:39:00.368Z,95897.75
2022-12-01T04:41:28.058Z,95896.78
2022-12-01T04:43:56.952Z,95900.09
2022-12-01T04:46:25.648Z,95897.47
2022-12-01T04:48:54.174Z,95899.84
2022-12-01T04:51:22.325Z,95904.22
2022-12-01T04:53:52.184Z,95904.78
2022-12-01T04:56:20.113Z,95900.78
2022-12-01T04:58:48.412Z,95900.09
2022-12-01T05:01:17.819Z,95899.84
2022-12-01T05:03:49.458Z,95900.94
2022-12-01T05:06:19.797Z,95890.06
2022-12-01T05:08:47.991Z,95901.47
2022-12-01T05:11:17.862Z,95901.75
2022-12-01T05:13:48.092Z,95896.81
2022-12-01T05:16:18.233Z,95893.81
2022-12-01T05:18:49.548Z,95904.25
2022-12-01T05:21:17.545Z,95897.09
2022-12-01T05:23:45.659Z,95897.91
2022-12-01T05:26:13.651Z,95899.69
2022-12-01T05:28:43.021Z,95899.56
2022-12-01T05:31:11.395Z,95889.69
2022-12-01T05:33:39.097Z,95887.75
2022-12-01T05:36:07.765Z,95891.59
2022-12-01T05:38:35.404Z,95897.78
2022-12-01T05:41:03.527Z,95892.16
2022-12-01T05:43:31.183Z,95896.28
2022-12-01T05:46:01.117Z,95893.53
2022-12-01T05:48:28.874Z,95896.13
2022-12-01T05:50:56.523Z,95895.19
2022-12-01T05:53:24.216Z,95895.88
2022-12-01T05:55:54.161Z,95891.75
2022-12-01T05:58:21.900Z,95893.81
2022-12-01T06:00:50.265Z,95887.78
2022-12-01T06:03:19.399Z,95892.41
2022-12-01T06:05:47.585Z,95892.97
2022-12-01T06:08:15.437Z,95900.66
2022-12-01T06:10:43.434Z,95898.34
2022-12-01T06:13:11.094Z,95899.16
2022-12-01T06:15:38.833Z,95895.47
2022-12-01T06:18:06.678Z,95907.00
2022-12-01T06:20:35.877Z,95907.81
2022-12-01T06:23:03.862Z,95897.94
2022-12-01T06:25:31.885Z,95904.38
2022-12-01T06:27:59.786Z,95909.75
2022-12-01T06:30:28.303Z,95906.56
2022-12-01T06:32:56.002Z,95908.78
2022-12-01T06:35:24.059Z,95905.34
2022-12-01T06:37:53.941Z,95910.28
2022-12-01T06:40:22.291Z,95910.81
2022-12-01T06:42:49.989Z,95911.09
2022-12-01T06:45:17.898Z,95915.38
2022-12-01T06:47:48.033Z,95913.28
2022-12-01T06:50:16.118Z,95917.97
2022-12-01T06:52:43.761Z,95922.09
2022-12-01T06:55:13.339Z,95923.72
2022-12-01T06:57:43.199Z,95914.13
2022-12-01T07:00:13.496Z,95927.44
2022-12-01T07:02:41.659Z,95929.53
2022-12-01T07:05:09.680Z,95930.91
2022-12-01T07:07:38.185Z,95927.06
2022-12-01T07:10:06.823Z,95930.06
2022-12-01T07:12:36.170Z,95935.03
2022-12-01T07:15:04.104Z,95942.47
2022-12-01T07:17:32.353Z,95941.63
2022-12-01T07:20:00.015Z,95949.19
2022-12-01T07:22:32.852Z,95946.31
2022-12-01T07:25:00.756Z,95945.91
2022-12-01T07:27:30.787Z,95944.09
2022-12-01T07:29:59.782Z,95950.44
2022-12-01T07:32:28.206Z,95945.22
2022-12-01T07:34:56.269Z,95947.44
2022-12-01T07:37:24.481Z,95953.19
2022-12-01T07:39:52.189Z,95949.63
2022-12-01T07:42:20.329Z,95950.97
2022-12-01T07:44:47.966Z,95950.72
2022-12-01T07:47:17.841Z,95950.16
2022-12-01T07:49:45.476Z,95949.59
2022-12-01T07:52:13.779Z,95945.75
2022-12-01T07:54:41.439Z,95955.78
2022-12-01T07:57:09.381Z,95957.28
2022-12-01T07:59:37.036Z,95953.44
2022-12-01T08:02:05.472Z,95963.06
2022-12-01T08:04:34.574Z,95958.22
2022-12-01T08:07:02.880Z,95949.69
2022-12-01T08:09:30.828Z,95958.19
2022-12-01T08:11:58.668Z,95956.66
2022-12-01T08:14:26.327Z,95959.38
2022-12-01T08:16:54.308Z,95955.78
2022-12-01T08:19:21.924Z,95962.44
2022-12-01T08:21:51.565Z,95964.91
2022-12-01T08:24:19.583Z,95956.97
2022-12-01T08:26:47.524Z,95954.72
2022-12-01T08:29:19.914Z,95956.78
2022-12-01T08:31:49.093Z,95953.66
2022-12-01T08:34:16.741Z,95954.03
2022-12-01T08:36:44.997Z,95958.03
2022-12-01T08:39:14.162Z,95956.47
2022-12-01T08:41:41.883Z,95954.13
2022-12-01T08:44:10.903Z,95959.03
2022-12-01T08:46:39.428Z,95957.97
2022-12-01T08:49:07.780Z,95956.31
2022-12-01T08:51:36.708Z,95956.59
2022-12-01T08:54:05.489Z,95961.69
2022-12-01T08:56:37.064Z,95952.38
2022-12-01T08:59:05.654Z,95959.41
2022-12-01T09:01:33.961Z,95959.66
2022-12-01T09:04:07.958Z,95955.28
2022-12-01T09:06:40.061Z,95963.69
2022-12-01T09:09:08.646Z,95968.94
2022-12-01T09:11:37.934Z,95959.44
2022-12-01T09:14:06.243Z,95966.19
2022-12-01T09:16:33.997Z,95968.25
2022-12-01T09:19:01.981Z,95972.94
2022-12-01T09:21:31.328Z,95967.97
2022-12-01T09:24:00.454Z,95963.16
2022-12-01T09:26:29.130Z,95971.00
2022-12-01T09:29:01.269Z,95958.91
2022-12-01T09:31:29.745Z,95967.28
2022-12-01T09:33:58.533Z,95963.31
2022-12-01T09:36:26.761Z,95965.75
2022-12-01T09:38:54.794Z,95964.38
2022-12-01T09:41:25.343Z,95961.88
2022-12-01T09:44:01.691Z,95966.03
2022-12-01T09:46:34.245Z,95963.25
2022-12-01T09:49:04.592Z,95957.31
2022-12-01T09:51:36.124Z,95960.75
2022-12-01T09:54:04.857Z,95955.09
2022-12-01T09:56:44.160Z,95960.16
2022-12-01T09:59:22.630Z,95951.34
2022-12-01T10:01:54.645Z,95944.47
2022-12-01T10:04:29.474Z,95945.41
2022-12-01T10:07:01.017Z,95941.97
2022-12-01T10:09:36.271Z,95941.41
2022-12-01T10:12:14.211Z,95939.31
2022-12-01T10:14:45.913Z,95935.28
2022-12-01T10:17:27.067Z,95936.78
2022-12-01T10:20:02.663Z,95944.13
2022-12-01T10:22:46.642Z,95938.47
2022-12-01T10:25:22.095Z,95944.31
2022-12-01T10:28:04.208Z,95929.75
2022-12-01T10:30:41.757Z,95940.06
2022-12-01T10:33:18.654Z,95935.94
2022-12-01T10:35:46.374Z,95940.50
2022-12-01T10:38:23.320Z,95926.34
2022-12-01T10:40:53.325Z,95923.31
2022-12-01T10:43:30.089Z,95920.56
2022-12-01T10:46:01.706Z,95925.47
2022-12-01T10:48:29.786Z,95920.25
2022-12-01T10:51:15.786Z,95915.84
2022-12-01T10:53:43.444Z,95916.66
2022-12-01T10:56:18.263Z,95910.66
2022-12-01T10:58:48.938Z,95909.81
2022-12-01T11:01:21.524Z,95914.91
2022-12-01T11:03:56.118Z,95907.31
2022-12-01T11:06:28.532Z,95903.31
2022-12-01T11:08:59.068Z,95903.31
2022-12-01T11:11:31.470Z,95900.97
2022-12-01T11:14:02.442Z,95904.25
2022-12-01T11:16:38.656Z,95898.75
2022-12-01T11:19:28.513Z,95891.56
2022-12-01T11:21:57.989Z,95902.88
2022-12-01T11:24:40.988Z,95891.72
2022-12-01T11:27:17.303Z,95888.97
2022-12-01T11:29:47.914Z,95893.69
2022-12-01T11:32:24.504Z,95902.63
2022-12-01T11:34:57.014Z,95899.84
2022-12-01T11:37:30.042Z,95903.16
2022-12-01T11:40:08.088Z,95897.63
2022-12-01T11:42:37.021Z,95893.53
2022-12-01T11:45:10.030Z,95892.84
2022-12-01T11:48:03.185Z,95894.88
2022-12-01T11:50:33.553Z,95888.38
2022-12-01T11:53:01.383Z,95890.19
2022-12-01T11:55:30.971Z,95896.25
2022-12-01T11:58:02.680Z,95892.25
2022-12-01T12:00:35.776Z,95887.69
2022-12-01T12:03:19.627Z,95887.41
2022-12-01T12:06:32.289Z,95889.00
2022-12-01T12:09:12.617Z,95890.34
2022-12-01T12:11:50.964Z,95887.97
2022-12-01T12:14:41.769Z,95884.13
2022-12-01T12:17:25.230Z,95890.44
2022-12-01T12:20:09.492Z,95877.59
2022-12-01T12:22:49.722Z,95879.38
2022-12-01T12:25:28.559Z,95878.41
2022-12-01T12:28:11.163Z,95878.00
2022-12-01T12:30:43.555Z,95874.75
2022-12-01T12:33:50.693Z,95875.81
2022-12-01T12:36:31.514Z,95866.78
2022-12-01T12:39:16.381Z,95868.97
2022-12-01T12:41:47.229Z,95864.91
2022-12-01T12:44:43.755Z,95872.25
2022-12-01T12:47:26.441Z,95876.56
2022-12-01T12:50:03.438Z,95867.72
2022-12-01T12:52:36.655Z,95877.25
2022-12-01T12:55:14.462Z,95876.19
2022-12-01T12:57:46.425Z,95866.09
2022-12-01T13:00:18.093Z,95868.25
2022-12-01T13:02:49.630Z,95870.72
2022-12-01T13:05:21.529Z,95864.44
2022-12-01T13:07:56.242Z,95865.88
2022-12-01T13:10:30.904Z,95857.84
2022-12-01T13:13:05.357Z,95866.94
2022-12-01T13:15:36.756Z,95864.47
2022-12-01T13:18:13.526Z,95860.72
2022-12-01T13:20:42.517Z,95867.59
2022-12-01T13:23:17.535Z,95861.69
2022-12-01T13:25:50.162Z,95866.19
2022-12-01T13:28:22.026Z,95864.97
2022-12-01T13:31:05.661Z,95867.66
2022-12-01T13:33:35.712Z,95867.81
2022-12-01T13:39:03.709Z,95866.41
2022-12-01T13:41:34.481Z,95870.56
2022-12-01T13:44:06.993Z,95867.97
2022-12-01T13:46:53.041Z,95869.00
2022-12-01T13:49:41.971Z,95869.81
2022-12-01T13:52:28.791Z,95869.59
2022-12-01T13:55:24.077Z,95862.84
2022-12-01T13:58:41.543Z,95861.66
2022-12-01T14:01:47.122Z,95864.94
2022-12-01T14:04:31.827Z,95866.59
2022-12-01T14:07:27.822Z,95867.56
2022-12-01T14:10:08.219Z,95862.31
2022-12-01T14:12:41.853Z,95856.97
2022-12-01T14:15:28.699Z,95867.84
2022-12-01T14:18:03.621Z,95870.94
2022-12-01T14:20:35.273Z,95874.94
2022-12-01T14:23:24.070Z,95874.13
2022-12-01T14:26:17.805Z,95877.63
2022-12-01T14:29:38.287Z,95873.34
2022-12-01T14:32:23.901Z,95870.34
2022-12-01T14:34:59.207Z,95869.31
2022-12-01T14:37:36.834Z,95874.53
2022-12-01T14:40:09.355Z,95880.44
2022-12-01T14:42:58.096Z,95879.78
2022-12-01T14:45:31.795Z,95869.56
2022-12-01T14:48:04.451Z,95867.09
2022-12-01T14:50:46.618Z,95863.53
2022-12-01T14:53:22.914Z,95863.81
2022-12-01T14:55:56.200Z,95863.00
2022-12-01T14:58:27.504Z,95873.63
2022-12-01T15:05:13.555Z,95870.44
2022-12-01T15:07:43.294Z,95868.50
2022-12-01T15:10:18.165Z,95872.75
2022-12-01T15:12:46.204Z,95860.81
2022-12-01T15:15:23.599Z,95869.31
2022-12-01T15:17:53.035Z,95869.47
2022-12-01T15:20:33.944Z,95872.75
2022-12-01T15:23:03.731Z,95875.38
2022-12-01T15:25:37.006Z,95878.97
2022-12-01T15:28:13.419Z,95873.72
2022-12-01T15:30:42.407Z,95870.59
2022-12-01T15:33:17.295Z,95873.06
2022-12-01T15:35:47.364Z,95869.78
2022-12-01T15:38:18.546Z,95872.69
2022-12-01T15:43:38.424Z,95869.81
2022-12-01T15:46:13.830Z,95876.03
2022-12-01T15:48:41.971Z,95873.81
2022-12-01T15:51:15.529Z,95868.31
2022-12-01T15:53:49.402Z,95865.56
2022-12-01T15:56:18.260Z,95872.44
2022-12-01T15:58:47.801Z,95866.66
2022-12-01T16:01:18.231Z,95872.19
2022-12-01T16:03:52.686Z,95872.19
2022-12-01T16:06:25.055Z,95869.19
2022-12-01T16:08:59.156Z,95872.75
2022-12-01T16:11:27.591Z,95874.41
2022-12-01T16:14:01.505Z,95862.84
2022-12-01T16:16:37.148Z,95869.72
2022-12-01T16:19:23.054Z,95874.94
2022-12-01T16:21:55.405Z,95865.16
2022-12-01T16:24:27.779Z,95865.16
2022-12-01T16:26:59.572Z,95865.03
2022-12-01T16:29:29.770Z,95864.22
2022-12-01T16:34:49.471Z,95872.47
2022-12-01T16:37:18.496Z,95878.22
2022-12-01T16:39:46.821Z,95879.88
2022-12-01T16:42:16.003Z,95883.75
2022-12-01T16:44:44.798Z,95881.69
2022-12-01T16:47:17.938Z,95878.41
2022-12-01T16:49:45.896Z,95880.50
2022-12-01T16:52:42.965Z,95884.34
2022-12-01T16:55:03.105Z,95883.38
2022-12-01T16:57:30.735Z,95877.47
2022-12-01T16:59:58.731Z,95879.13
2022-12-01T17:02:26.433Z,95881.06
2022-12-01T17:04:54.359Z,95881.88
2022-12-01T17:07:22.125Z,95877.47
2022-12-01T17:09:49.943Z,95874.19
2022-12-01T17:12:18.898Z,95872.53
2022-12-01T17:14:46.681Z,95873.22
2022-12-01T17:17:14.295Z,95877.78
2022-12-01T17:19:42.170Z,95878.44
2022-12-01T17:22:09.846Z,95877.78
2022-12-01T17:24:38.181Z,95875.84
2022-12-01T17:27:05.839Z,95873.59
2022-12-01T17:29:35.282Z,95868.94
2022-12-01T17:32:02.950Z,95871.38
2022-12-01T17:34:30.814Z,95865.19
2022-12-01T17:36:58.689Z,95870.97
2022-12-01T17:39:26.616Z,95874.00
2022-12-01T17:41:55.111Z,95864.22
2022-12-01T17:44:23.185Z,95873.03
2022-12-01T17:46:52.257Z,95870.72
2022-12-01T17:49:20.447Z,95865.75
2022-12-01T17:51:48.174Z,95875.28
2022-12-01T17:54:17.019Z,95874.97
2022-12-01T17:56:44.807Z,95873.84
2022-12-01T17:59:13.110Z,95874.00
2022-12-01T18:01:41.965Z,95874.16
2022-12-01T18:04:11.336Z,95874.56
2022-12-01T18:06:39.156Z,95878.03
2022-12-01T18:09:07.667Z,95872.31
2022-12-01T18:11:35.402Z,95866.84
2022-12-01T18:14:04.111Z,95871.75
2022-12-01T18:16:33.386Z,95878.09
2022-12-01T18:19:02.516Z,95877.13
2022-12-01T18:21:31.648Z,95877.41
2022-12-01T18:24:01.171Z,95874.50
2022-12-01T18:26:29.948Z,95875.75
2022-12-01T18:28:59.776Z,95883.72
2022-12-01T18:31:28.662Z,95889.13
2022-12-01T18:33:58.890Z,95883.72
2022-12-01T18:36:27.432Z,95884.41
2022-12-01T18:38:59.140Z,95883.72
2022-12-01T18:41:27.553Z,95881.13
2022-12-01T18:43:55.548Z,95884.09
2022-12-01T18:46:23.891Z,95883.56
2022-12-01T18:48:53.707Z,95883.56
2022-12-01T18:51:22.079Z,95884.22
2022-12-01T18:53:50.158Z,95875.84
2022-12-01T18:56:19.857Z,95882.69
2022-12-01T18:58:47.599Z,95874.44
2022-12-01T19:01:20.852Z,95875.03
2022-12-01T19:03:48.878Z,95870.94
2022-12-01T19:06:17.040Z,95873.38
2022-12-01T19:08:47.394Z,95875.84
2022-12-01T19:11:16.155Z,95872.81
2022-12-01T19:13:45.315Z,95874.34
2022-12-01T19:16:16.210Z,95874.44
2022-12-01T19:18:44.493Z,95871.72
2022-12-01T19:21:15.169Z,95874.19
2022-12-01T19:23:43.769Z,95877.31
2022-12-01T19:26:15.527Z,95880.75
2022-12-01T19:28:45.353Z,95880.50
2022-12-01T19:31:18.073Z,95877.47
2022-12-01T19:33:45.904Z,95882.28
2022-12-01T19:36:15.576Z,95877.06
2022-12-01T19:38:44.423Z,95874.75
2022-12-01T19:41:14.208Z,95874.44
2022-12-01T19:43:43.147Z,95871.28
2022-12-01T19:46:15.011Z,95874.75
2022-12-01T19:48:44.205Z,95867.06
2022-12-01T19:51:25.001Z,95869.50
2022-12-01T19:53:52.974Z,95867.31
2022-12-01T19:56:21.775Z,95865.06
2022-12-01T19:58:50.685Z,95868.38
2022-12-01T20:01:20.185Z,95871.69
2022-12-01T20:03:51.272Z,95869.34
2022-12-01T20:06:21.152Z,95874.72
2022-12-01T20:08:49.304Z,95877.06
2022-12-01T20:11:17.400Z,95876.16
2022-12-01T20:13:47.088Z,95881.63
2022-12-01T20:16:16.888Z,95879.81
2022-12-01T20:18:45.520Z,95878.03
2022-12-01T20:21:17.427Z,95874.44
2022-12-01T20:23:46.690Z,95876.66
2022-12-01T20:26:16.192Z,95875.84
2022-12-01T20:28:45.353Z,95879.41
2022-12-01T20:31:16.931Z,95881.06
2022-12-01T20:33:44.663Z,95877.78
2022-12-01T20:36:14.467Z,95882.03
2022-12-01T20:38:42.646Z,95877.78
2022-12-01T20:41:11.786Z,95876.13
2022-12-01T20:43:39.741Z,95874.75
2022-12-01T20:46:08.512Z,95869.50
2022-12-01T20:48:36.525Z,95874.75
2022-12-01T20:51:06.004Z,95872.69
2022-12-01T20:53:36.025Z,95869.81
2022-12-01T20:56:03.925Z,95864.59
2022-12-01T20:58:37.032Z,95865.25
2022-12-01T21:01:08.692Z,95870.47
2022-12-01T21:03:36.437Z,95869.81
2022-12-01T21:06:04.111Z,95868.16
2022-12-01T21:08:32.326Z,95865.00
2022-12-01T21:11:05.717Z,95865.94
2022-12-01T21:13:39.561Z,95862.94
2022-12-01T21:16:14.195Z,95857.72
2022-12-01T21:18:51.742Z,95867.34
2022-12-01T21:21:24.245Z,95859.63
2022-12-01T21:24:04.699Z,95865.81
2022-12-01T21:26:33.759Z,95866.09
2022-12-01T21:29:01.859Z,95861.03
2022-12-01T21:31:29.566Z,95865.69
2022-12-01T21:33:57.423Z,95865.44
2022-12-01T21:36:29.629Z,95870.53
2022-12-01T21:39:10.589Z,95868.59
2022-12-01T21:41:39.576Z,95864.63
2022-12-01T21:44:14.577Z,95864.63
2022-12-01T21:46:42.524Z,95863.38
2022-12-01T21:49:18.573Z,95862.16
2022-12-01T21:51:47.429Z,95870.25
2022-12-01T21:54:19.793Z,95854.97
2022-12-01T21:56:49.740Z,95859.53
2022-12-01T21:59:21.076Z,95858.41
2022-12-01T22:01:51.630Z,95855.25
2022-12-01T22:04:22.489Z,95853.59
2022-12-01T22:06:53.263Z,95857.19
2022-12-01T22:09:25.973Z,95860.09
2022-12-01T22:11:57.221Z,95855.53
2022-12-01T22:14:29.899Z,95853.22
2022-12-01T22:17:00.251Z,95845.09
2022-12-01T22:19:31.461Z,95845.09
2022-12-01T22:22:02.798Z,95840.41
2022-12-01T22:24:38.743Z,95844.53
2022-12-01T22:27:30.248Z,95842.59
2022-12-01T22:30:00.383Z,95834.06
2022-12-01T22:32:47.405Z,95840.28
2022-12-01T22:35:35.923Z,95846.16
2022-12-01T22:38:35.497Z,95845.50
2022-12-01T22:41:06.472Z,95837.66
2022-12-01T22:43:47.253Z,95836.69
2022-12-01T22:46:31.244Z,95836.53
2022-12-01T22:49:02.277Z,95837.09
2022-12-01T22:51:40.544Z,95827.19
2022-12-01T22:54:25.868Z,95830.34
2022-12-01T22:57:04.743Z,95828.56
2022-12-01T22:59:36.410Z,95827.19
2022-12-01T23:02:20.404Z,95828.84
2022-12-01T23:04:49.384Z,95829.53
2022-12-01T23:07:32.688Z,95823.31
2022-12-01T23:10:12.195Z,95831.84
2022-12-01T23:12:40.065Z,95826.34
2022-12-01T23:15:23.043Z,95825.94
2022-12-01T23:17:51.591Z,95818.78
2022-12-01T23:20:32.654Z,95817.81
2022-12-01T23:23:02.397Z,95816.59
2022-12-01T23:25:30.819Z,95815.25
2022-12-01T23:28:01.719Z,95814.56
2022-12-01T23:30:30.789Z,95811.22
2022-12-01T23:33:07.581Z,95804.91
2022-12-01T23:35:40.652Z,95800.09
2022-12-01T23:38:15.676Z,95800.78
2022-12-01T23:40:44.252Z,95795.56
2022-12-01T23:43:18.507Z,95795.56
2022-12-01T23:45:51.594Z,95791.97
2022-12-01T23:48:22.910Z,95792.53
2022-12-01T23:50:53.790Z,95790.84
2022-12-01T23:53:27.907Z,95788.38
2022-12-01T23:55:58.205Z,95786.75
2022-12-01T23:58:26.213Z,95782.47
